Glade Park, Colorado
Current Conditions -  °F | °C
As of 3:53 AM on Wednesday 26 Nov 2014 (Local Time) from KGJT Reporting Station
Clear Clear  
Wind Chill: 23°   Ceiling: Unl
Heat Index: 23°   Visibility: 10mi
Dew Point: 19°   Wind: 3mph
Humidity: 85%   Direction: 120°ESE
Pressure: 30.33"   Gusts: NA
Location:  38.99°N, 108.74°W
Report Text: KGJT 261053Z AUTO 12003KT 10SM CLR M05/M07 A3033 RMK AO2 SLP292 T10501072
Loading
Personal Weather Stations






























Interactive Weather Map New forecast layout! Learn more

10-Day Weather Forecast

Advertisements
Track Severe Weather on mobile